Fairview Valley, Nevada Weather observations

Data are for observation ending at time listed.
 Day   Time    Ave.   Ave.  Ave.  Vector   Max.   Stn.    Total    Solar   Ave.   Ave.    #1       #2
  of    of     Air    Rel.  Wind   Wind    Wind   Baro.  Precip.   Rad.    Soil   Vis.   Cloud   Cloud
Year   Day     Temp.  Hum.  Speed  Dir.    Gust   Pres.                    Temp.          Ceil    Ceil
2026   (PST)    F      %     mph   deg.    mph     mb.     in.     W/m2     F     (km)   k ft.   k ft.
------------------------------------------------------------------------------------------------------
 121   10:10   67.4    15    9.4    38     13.2    874     0.00     951    62.6   999.0  999.0  999.0
 121   10:20   67.5    14    9.1    28     12.2    874     0.00     969    62.5   999.0  999.0  999.0
 121   10:30   67.6    14    8.5    27     11.8    874     0.00     984    62.5   999.0  999.0  999.0
 121   10:40   68.3    13    8.6    24     11.5    873     0.00     998    62.4   999.0  999.0  999.0
 121   10:50   68.5    13    7.5    24     10.4    873     0.00    1011    62.4   999.0  999.0  999.0
 121   11:00   68.9    13    8.2    38     10.8    873     0.00    1012    62.4   999.0  999.0  999.0
 121   11:10   69.0    13    7.2    28     10.1    873     0.00    1031    62.3   999.0  999.0  999.0
 121   11:20   68.4    13    7.8   336     10.2    873     0.00    1040    62.3   999.0  999.0  999.0
 121   11:30   69.1    13    4.7   354      9.9    873     0.00    1047    62.3   999.0  999.0  999.0
 121   11:40   69.6    12    3.8    65      9.1    873     0.00    1045    62.3   999.0  999.0  999.0
 121   11:50   70.4    12    4.8    59      9.7    873     0.00    1050    62.3   999.0  999.0  999.0
 121   12:00   69.6    12    6.3    16      9.6    873     0.00    1052    62.2   999.0  999.0  999.0
 121   12:10   69.7    12    5.6     6     10.0    872     0.00    1046    62.2   999.0  999.0  999.0
 121   12:20   70.3    12    3.6   282     10.2    872     0.00    1033    62.2   999.0  999.0  999.0
 121   12:30   71.0    12    4.8   268     10.5    872     0.00    1041    62.2   999.0  999.0  999.0
 121   12:40   70.8    12    4.4   172      7.7    872     0.00    1035    62.2   999.0  999.0  999.0
 121   12:50   71.2    12    4.6   177      9.6    872     0.00    1022    62.2   999.0  999.0  999.0
 121   13:00   71.6    11    6.4   125      9.6    872     0.00    1017    62.2   999.0  999.0  999.0
 121   13:10   72.2    11    3.7   188      6.3    872     0.00    1001    62.2   999.0  999.0  999.0
 121   13:20   72.6    10    3.0   218      6.9    872     0.00     991    62.2   999.0  999.0  999.0
 121   13:30   74.0    10    4.7   352      9.6    872     0.00     972    62.2   999.0  999.0  999.0
 121   13:40   73.5    10    4.2    43      9.4    872     0.00     957    62.2   999.0  999.0  999.0
 121   13:50   73.1    10    5.0   154      8.9    872     0.00     935    62.3   999.0  999.0  999.0
 121   14:00   73.2    10    3.5   130      8.0    871     0.00     926    62.3   999.0  999.0  999.0
 121   14:10   73.3    10    5.7   352      9.9    871     0.00     892    62.3   999.0  999.0  999.0
 121   14:20   73.9    10    5.2    15     10.2    871     0.00     881    62.4   999.0  999.0  999.0
 121   14:30   73.6    10    6.0    39     10.0    871     0.00     865    62.5   999.0  999.0  999.0
 121   14:40   73.9    10    3.6    32      9.3    871     0.00     846    62.5   999.0  999.0  999.0
 121   14:50   74.2    10    5.7    63      9.9    871     0.00     787    62.5   999.0  999.0  999.0
 121   15:00   74.3    10    6.6   339      9.9    870     0.00     759    62.6   999.0  999.0  999.0
 121   15:10   74.3    10    6.1    61      9.3    870     0.00     742    62.6   999.0  999.0  999.0
 121   15:20   73.9    10    6.3    23     11.2    870     0.00     702    62.7   999.0  999.0  999.0
 121   15:30   73.8    10    5.5   348      9.9    870     0.00     639    62.8   999.0  999.0  999.0
 121   15:40   74.5    10    5.1    36      9.8    870     0.00     646    62.9   999.0  999.0  999.0
 121   15:50   73.9    10    6.0    26      9.8    870     0.00     436    62.9   999.0  999.0  999.0
 121   16:00   73.6    10    2.9    83      6.1    870     0.00     499    63.0   999.0  999.0  999.0
 121   16:10   74.6    10    5.4   336     10.7    870     0.00     546    63.0   999.0  999.0  999.0
 121   16:20   74.1    10    3.1   323      6.6    870     0.00     425    63.1   999.0  999.0  999.0
 121   16:30   74.2    10    1.2   358      3.9    870     0.00     303    63.2   999.0  999.0  999.0
 121   16:40   73.4    10    2.7   332      4.5    870     0.00     231    63.3   999.0  999.0  999.0
 121   16:50   73.9    10    1.7   252      3.6    870     0.00     302    63.4   999.0  999.0  999.0
 121   17:00   73.7    10    5.0    29      9.8    870     0.00     237    63.5   999.0  999.0  999.0
 121   17:10   73.0    10    6.3    19      9.6    870     0.00     223    63.6   999.0  999.0  999.0
 121   17:20   73.1    10    5.2     5      9.8    870     0.00     267    63.7   999.0  999.0  999.0
 121   17:30   73.4    10    5.0    23      8.2    870     0.00     229    63.8   999.0  999.0  999.0
 121   17:40   73.0    10    5.1    12      9.8    870     0.00     159    63.9   999.0  999.0  999.0
 121   17:50   72.9    10    4.4    29      9.7    870     0.00     148    64.0   999.0  999.0  999.0
 121   18:00   71.9    10    8.2    24      9.9    870     0.00      73    64.1   999.0  999.0  999.0
 121   18:10   71.1    10    8.2    21      9.9    870     0.00      60    64.2   999.0  999.0  999.0
 121   18:20   70.3    11    8.1    26      9.9    870     0.00      35    64.3   999.0  999.0  999.0
 121   18:30   69.1    11    8.2    32      9.9    870     0.00      19    64.4   999.0  999.0  999.0
 121   18:40   67.9    11    8.3    35      9.7    870     0.00      11    64.5   999.0  999.0  999.0
 121   18:50   66.8    11    8.7    30      9.9    870     0.00       4    64.6   999.0  999.0  999.0
 121   19:00   65.2    12    8.4    29      9.6    870     0.00       1    64.8   999.0  999.0  999.0
 121   19:10   63.6    12    8.4    31      9.8    870     0.00       0    64.8   999.0  999.0  999.0
 121   19:20   61.8    13    8.4    46      9.9    870     0.00       0    64.9   999.0  999.0  999.0
 121   19:30   60.3    14    8.5    48      9.9    870     0.00       0    65.0   999.0  999.0  999.0
 121   19:40   61.1    13    8.3    50     10.0    870     0.00       0    65.0   999.0  999.0  999.0
 121   19:50   61.1    13    8.3    54      9.9    870     0.00       0    65.1   999.0  999.0  999.0
 121   20:00   60.3    14    8.5    57     10.0    870     0.00       0    65.2   999.0  999.0  999.0
 121   20:10   60.5    14    8.5    58      9.9    870     0.00       0    65.3   999.0  999.0  999.0
 121   20:20   60.3    14    8.4    73      9.7    870     0.00       0    65.4   999.0  999.0  999.0
 121   20:30   59.8    14    8.3    85      9.6    870     0.00       0    65.5   999.0  999.0  999.0
 121   20:40   61.0    14    8.4    80      9.6    870     0.00       0    65.6   999.0  999.0  999.0
 121   20:50   59.4    15    5.8    90      7.9    870     0.00       0    65.6   999.0  999.0  999.0
 121   21:00   58.3    16    6.8    96      8.7    870     0.00       0    65.7   999.0  999.0  999.0
 121   21:10   59.5    15    6.8    85      8.5    870     0.00       0    65.8   999.0  999.0  999.0
 121   21:20   58.9    16    5.9    82      7.4    870     0.00       0    65.8   999.0  999.0  999.0
 121   21:30   58.3    16    4.0    81      5.6    870     0.00       0    65.9   999.0  999.0  999.0
 121   21:40   56.6    17    4.3   124      6.4    870     0.00       0    65.9   999.0  999.0  999.0
 121   21:50   56.6    18    5.5   102      8.6    870     0.00       0    66.0   999.0  999.0  999.0
 121   22:00   56.2    19    4.8   115      7.7    870     0.00       0    66.1   999.0  999.0  999.0
 121   22:10   56.0    19    4.6   105      6.7    870     0.00       0    66.1   999.0  999.0  999.0
 121   22:20   56.1    19    5.8   146      8.9    870     0.00       0    66.1   999.0  999.0  999.0
 121   22:30   56.6    19    4.3   143      5.9    870     0.00       0    66.2   999.0  999.0  999.0
 121   22:40   55.9    19    2.9   165      4.8    871     0.00       0    66.2   999.0  999.0  999.0
 121   22:50   55.5    20    1.0   112      2.3    871     0.00       0    66.2   999.0  999.0  999.0
 121   23:00   54.7    20    2.5   297      3.3    871     0.00       0    66.3   999.0  999.0  999.0
 121   23:10   53.1    21    2.8   329      3.8    871     0.00       0    66.3   999.0  999.0  999.0
 121   23:20   52.8    22    2.8     9      3.7    871     0.00       0    66.3   999.0  999.0  999.0
 121   23:30   52.7    22    5.2   144      8.0    871     0.00       0    66.3   999.0  999.0  999.0
 121   23:40   55.0    20    7.3   159     10.9    871     0.00       0    66.3   999.0  999.0  999.0
 121   23:50   57.2    18    5.7   161     10.2    871     0.00       0    66.4   999.0  999.0  999.0
 122    0:00   56.4    19    5.3   124      9.1    871     0.00       0    66.4   999.0  999.0  999.0
 122    0:10   56.0    19    5.9   156      8.6    871     0.00       0    66.4   999.0  999.0  999.0
 122    0:20   56.4    19    5.2   113      8.3    871     0.00       0    66.4   999.0  999.0  999.0
 122    0:30   55.0    20    3.3    23      6.5    871     0.00       0    66.4   999.0  999.0  999.0
 122    0:40   53.2    22    3.6    62      7.7    871     0.00       0    66.4   999.0  999.0  999.0
 122    0:50   52.9    22    3.8    39      5.6    871     0.00       0    66.4   999.0  999.0  999.0
 122    1:00   51.1    24    3.1    52      4.6    871     0.00       0    66.3   999.0  999.0  999.0
 122    1:10   48.5    26    2.4   125      6.9    871     0.00       0    66.3   999.0  999.0  999.0
 122    1:20   48.1    26    3.9    21      6.2    871     0.00       0    66.3   999.0  999.0  999.0
 122    1:30   48.6    25    2.9    28      4.5    871     0.00       0    66.3   999.0  999.0  999.0
 122    1:40   48.5    25    5.2     4      6.6    870     0.00       0    66.3   999.0  999.0  999.0
 122    1:50   46.6    27    4.2    27      6.2    870     0.00       0    66.2   999.0  999.0  999.0
 122    2:00   47.4    26    5.7    23      7.5    870     0.00       0    66.2   999.0  999.0  999.0
 122    2:10   51.3    23    5.1    72      8.1    870     0.00       0    66.2   999.0  999.0  999.0
 122    2:20   53.0    22    2.4    77      5.0    870     0.00       0    66.2   999.0  999.0  999.0
 122    2:30   52.3    23    2.7    48      4.2    870     0.00       0    66.1   999.0  999.0  999.0
 122    2:40   51.4    23    3.8    39      6.0    870     0.00       0    66.1   999.0  999.0  999.0
 122    2:50   50.8    24    3.3    47      5.3    870     0.00       0    66.0   999.0  999.0  999.0
 122    3:00   50.1    24    5.1     5      7.3    870     0.00       0    66.0   999.0  999.0  999.0
 122    3:10   48.9    26    5.6   312      9.6    870     0.00       0    66.0   999.0  999.0  999.0
 122    3:20   49.8    25    3.0   304      4.8    870     0.00       0    65.9   999.0  999.0  999.0
 122    3:30   48.8    26    3.4   289      6.0    870     0.00       0    65.9   999.0  999.0  999.0
 122    3:40   49.8    25    4.6   331      6.6    870     0.00       0    65.9   999.0  999.0  999.0
 122    3:50   48.9    26    3.6   128      6.2    870     0.00       0    65.9   999.0  999.0  999.0
 122    4:00   48.3    27    2.3   325      4.8    870     0.00       0    65.8   999.0  999.0  999.0
 122    4:10   47.9    27    4.6   309      6.9    870     0.00       0    65.8   999.0  999.0  999.0
 122    4:20   48.4    26    2.9   356      5.5    870     0.00       0    65.7   999.0  999.0  999.0
 122    4:30   49.5    25    2.6    20      4.1    870     0.00       0    65.7   999.0  999.0  999.0
 122    4:40   48.7    26    5.2    16      7.6    870     0.00       0    65.6   999.0  999.0  999.0
 122    4:50   47.6    27    2.8    30      4.1    870     0.00       3    65.6   999.0  999.0  999.0
 122    5:00   48.2    26    2.3    26      5.3    870     0.00       5    65.5   999.0  999.0  999.0
 122    5:10   48.3    27    2.2   277      6.0    870     0.00      14    65.5   999.0  999.0  999.0
 122    5:20   47.9    27    3.6   312      7.4    870     0.00      25    65.4   999.0  999.0  999.0
 122    5:30   47.7    27    4.5   331      7.2    870     0.00      41    65.4   999.0  999.0  999.0
 122    5:40   48.5    27    5.2   352      8.6    870     0.00      63    65.3   999.0  999.0  999.0
 122    5:50   50.5    25    4.7   340      7.4    870     0.00      89    65.3   999.0  999.0  999.0
 122    6:00   53.0    23    4.9   355      8.0    870     0.00     125    65.2   999.0  999.0  999.0
 122    6:10   55.3    21    5.1     1      8.6    871     0.00     176    65.2   999.0  999.0  999.0
 122    6:20   59.4    18    6.2   341      8.6    871     0.00     172    65.1   999.0  999.0  999.0
 122    6:30   61.8    16    6.5   355      8.3    871     0.00     184    65.1   999.0  999.0  999.0
 122    6:40   62.7    16    6.7     7      8.8    871     0.00     183    65.1   999.0  999.0  999.0
 122    6:50   63.2    15    5.7    13      8.7    871     0.00     242    65.0   999.0  999.0  999.0
 122    7:00   64.1    14    7.3     3      8.9    871     0.00     337    65.0   999.0  999.0  999.0
 122    7:10   65.3    14    6.7     5      9.7    871     0.00     389    64.9   999.0  999.0  999.0
 122    7:20   65.4    14    5.3   345      7.4    871     0.00     403    64.8   999.0  999.0  999.0
 122    7:30   66.0    13    4.6   336      8.2    871     0.00     409    64.8   999.0  999.0  999.0
 122    7:40   66.4    13    4.5   329      7.9    871     0.00     319    64.7   999.0  999.0  999.0
 122    7:50   66.5    13    6.5   334      9.6    871     0.00     510    64.7   999.0  999.0  999.0
 122    8:00   68.0    12    7.3   349      9.7    871     0.00     618    64.7   999.0  999.0  999.0
 122    8:10   68.7    12    6.3   344      8.9    871     0.00     440    64.6   999.0  999.0  999.0
 122    8:20   69.0    11    6.3   309     10.3    871     0.00     389    64.6   999.0  999.0  999.0
 122    8:30   69.5    11    3.5    44      8.4    871     0.00     400    64.6   999.0  999.0  999.0
 122    8:40   70.2    11    6.1   181     13.1    871     0.00     395    64.5   999.0  999.0  999.0
 122    8:50   71.1    10    9.2   179     13.4    871     0.00     453    64.5   999.0  999.0  999.0
 122    9:00   71.2    10   12.1   181     18.0    871     0.00     417    64.4   999.0  999.0  999.0
 122    9:10   71.8    10   11.7   182     15.4    871     0.00     417    64.4   999.0  999.0  999.0
 122    9:20   72.0    10   12.4   182     16.9    870     0.00     483    64.3   999.0  999.0  999.0
 122    9:30   72.2    10   14.5   182     19.1    870     0.00     485    64.3   999.0  999.0  999.0
 122    9:40   72.3    10   13.4   169     19.1    870     0.00     490    64.2   999.0  999.0  999.0
 122    9:50   72.2    10   14.2   174     19.1    870     0.00     455    64.2   999.0  999.0  999.0
 122   10:00   73.0    10   10.5   186     16.1    870     0.00     456    64.1   999.0  999.0  999.0

Return to Fairview Valley graphs page.


Western Regional Climate Center,wrcc@dri.edu